Terminal Aerodrome Forecast
Issued by NWS

Home | Current Version | Previous Version | Text Only | Print | Product List | Glossary On
Versions: 1 2 3 4 5 6 7 8 9 10 11 12 13 14 15
000
FTUS41 KPHI 221120
TAFPNE
TAF
KPNE 221120Z 2212/2312 VRB02KT P6SM OVC060
     FM230100 11004KT P6SM BKN220 WS020/20035KT
     FM230900 13004KT 6SM SHRA OVC035 WS020/20030KT
     FM231000 15006KT 6SM SHRA OVC025 WS020/20035KT=

USA.gov is the U.S. government's official web portal to all federal, state and local government web resources and services.